createdAt,value
2018-03-06T08:43:15.052Z,28.80
2018-03-06T08:44:15.044Z,25.70
2018-03-06T08:45:15.033Z,27.30
2018-03-06T08:46:15.030Z,28.20
2018-03-06T08:47:15.026Z,28.00
2018-03-06T08:48:15.020Z,28.60
2018-03-06T08:49:15.011Z,26.70
2018-03-06T08:50:15.010Z,27.00
2018-03-06T08:51:15.003Z,25.90
2018-03-06T08:52:14.990Z,25.50
2018-03-06T08:53:14.990Z,26.50
2018-03-06T08:54:14.986Z,26.60
2018-03-06T08:55:14.977Z,30.20
2018-03-06T08:56:14.969Z,28.00
2018-03-06T08:57:14.964Z,27.00
2018-03-06T08:58:14.963Z,27.10
2018-03-06T08:59:14.953Z,26.20
2018-03-06T09:00:57.360Z,26.20
2018-03-06T09:01:57.356Z,26.10
2018-03-06T09:02:57.343Z,27.10
2018-03-06T09:03:57.340Z,27.40
2018-03-06T09:04:57.335Z,27.30
2018-03-06T09:05:57.331Z,28.90
2018-03-06T09:06:57.321Z,26.80
2018-03-06T09:07:57.318Z,28.60
2018-03-06T09:08:57.317Z,27.20
2018-03-06T09:09:57.304Z,28.30
2018-03-06T09:10:57.302Z,28.40
2018-03-06T09:11:57.298Z,29.20
2018-03-06T09:12:57.291Z,28.70
2018-03-06T09:13:57.284Z,27.20
2018-03-06T09:14:57.277Z,28.70
2018-03-06T09:15:57.274Z,29.10
2018-03-06T09:16:57.269Z,29.20
2018-03-06T09:17:57.266Z,29.10
2018-03-06T09:18:57.258Z,29.00
2018-03-06T09:19:57.252Z,28.10
2018-03-06T09:20:57.249Z,27.60
2018-03-06T09:21:57.248Z,28.60
2018-03-06T09:22:57.238Z,27.60
2018-03-06T09:23:57.238Z,27.70
2018-03-06T09:24:57.230Z,27.40
2018-03-06T09:25:57.244Z,29.60
2018-03-06T09:26:57.220Z,26.90
2018-03-06T09:27:57.215Z,26.90
2018-03-06T09:28:57.215Z,28.60
2018-03-06T09:29:57.208Z,30.30
2018-03-06T09:30:57.205Z,26.20
2018-03-06T09:31:57.194Z,31.10
2018-03-06T09:32:57.190Z,28.00
2018-03-06T09:33:57.192Z,29.70
2018-03-06T09:34:57.184Z,28.80
2018-03-06T09:35:57.178Z,27.30
2018-03-06T09:36:57.193Z,27.00
2018-03-06T09:37:57.169Z,29.90
2018-03-06T09:38:57.164Z,29.30
2018-03-06T09:39:57.164Z,27.70
2018-03-06T09:40:57.169Z,28.70
2018-03-06T09:41:57.149Z,27.60
2018-03-06T09:42:57.146Z,25.70
2018-03-06T09:43:57.143Z,25.70
2018-03-06T09:44:57.143Z,25.50
2018-03-06T09:45:57.139Z,26.40
2018-03-06T09:46:57.131Z,27.70
2018-03-06T09:47:57.128Z,28.50
2018-03-06T09:48:57.375Z,26.40
2018-03-06T09:49:57.123Z,26.50
2018-03-06T09:50:57.115Z,26.30
2018-03-06T09:51:57.116Z,26.40
2018-03-06T09:52:57.108Z,26.00
2018-03-06T09:53:57.109Z,28.70
2018-03-06T09:54:57.102Z,27.50
2018-03-06T09:55:57.098Z,27.40
2018-03-06T09:56:57.093Z,28.40
2018-03-06T09:57:57.100Z,28.70
2018-03-06T09:58:57.085Z,28.30
2018-03-06T09:59:57.081Z,26.40
2018-03-06T10:00:57.077Z,28.70
2018-03-06T10:01:57.080Z,28.80
2018-03-06T10:02:57.069Z,26.00
2018-03-06T10:03:57.072Z,27.90
2018-03-06T10:04:57.065Z,29.00
2018-03-06T10:05:57.064Z,30.80
2018-03-06T10:06:57.061Z,27.60
2018-03-06T10:07:57.053Z,29.60
2018-03-06T10:08:57.049Z,29.10
2018-03-06T10:09:57.045Z,27.80
2018-03-06T10:10:57.042Z,29.30
2018-03-06T10:11:57.040Z,27.60
2018-03-06T10:12:57.037Z,30.60
2018-03-06T10:13:57.036Z,28.50
2018-03-06T10:14:57.034Z,28.00
2018-03-06T10:15:57.025Z,29.50
2018-03-06T10:16:57.032Z,28.10
2018-03-06T10:17:57.025Z,26.40
2018-03-06T10:18:57.024Z,29.30
2018-03-06T10:19:57.018Z,26.30
2018-03-06T10:20:57.013Z,27.00
2018-03-06T10:21:57.011Z,25.20
2018-03-06T10:22:57.005Z,26.40
2018-03-06T10:23:57.004Z,27.70
2018-03-06T10:24:57.001Z,25.70
2018-03-06T10:25:56.998Z,28.60
2018-03-06T10:26:56.998Z,24.80
2018-03-06T10:27:56.997Z,25.60
2018-03-06T10:28:56.996Z,24.60
2018-03-06T10:29:56.992Z,27.40
2018-03-06T10:30:56.986Z,25.10
2018-03-06T10:31:56.982Z,26.10
2018-03-06T10:32:56.985Z,25.40
2018-03-06T10:33:56.985Z,27.20
2018-03-06T10:34:56.981Z,23.30
2018-03-06T10:35:56.974Z,28.00
2018-03-06T10:36:56.972Z,23.80
2018-03-06T10:37:56.974Z,25.20
2018-03-06T10:38:56.967Z,24.80
2018-03-06T10:39:56.968Z,23.50
2018-03-06T10:40:56.963Z,24.70
2018-03-06T10:41:56.966Z,23.30
2018-03-06T10:42:56.961Z,24.80
2018-03-06T10:43:56.960Z,24.30
2018-03-06T10:44:56.958Z,24.30
2018-03-06T10:45:56.960Z,24.50
2018-03-06T10:46:56.956Z,24.90
2018-03-06T10:47:56.951Z,24.10
2018-03-06T10:48:56.956Z,27.50
2018-03-06T10:49:56.949Z,25.10
2018-03-06T10:50:56.952Z,27.00
2018-03-06T10:51:56.945Z,26.40
2018-03-06T10:52:56.945Z,27.40
2018-03-06T10:53:56.946Z,27.80
2018-03-06T10:54:56.940Z,27.20
2018-03-06T10:55:56.941Z,26.30
2018-03-06T10:56:56.942Z,27.20
2018-03-06T10:57:56.942Z,25.20
2018-03-06T10:58:56.940Z,25.70
2018-03-06T10:59:56.938Z,23.40
2018-03-06T11:00:56.933Z,24.60
2018-03-06T11:01:56.936Z,26.20
2018-03-06T11:02:56.938Z,22.40
2018-03-06T11:03:56.933Z,23.60
2018-03-06T11:04:56.931Z,23.40
2018-03-06T11:05:56.933Z,26.80
2018-03-06T11:06:56.928Z,24.70
2018-03-06T11:07:56.928Z,23.40
2018-03-06T11:08:56.926Z,24.20
2018-03-06T11:09:56.925Z,24.80
2018-03-06T11:10:56.924Z,24.50
2018-03-06T11:11:56.920Z,24.20
2018-03-06T11:12:56.922Z,25.50
2018-03-06T11:13:56.918Z,22.10
2018-03-06T11:14:56.918Z,21.20
2018-03-06T11:15:56.919Z,22.70
2018-03-06T11:16:56.918Z,24.10
2018-03-06T11:17:56.920Z,23.30
2018-03-06T11:18:56.918Z,22.40
2018-03-06T11:19:56.912Z,21.10
2018-03-06T11:20:56.923Z,20.80
2018-03-06T11:21:56.916Z,25.20
2018-03-06T11:22:56.909Z,21.10
2018-03-06T11:23:56.912Z,23.70
2018-03-06T11:24:57.013Z,22.70
2018-03-06T11:25:56.919Z,23.00
2018-03-06T11:26:56.913Z,23.70
2018-03-06T11:27:56.944Z,23.00
2018-03-06T11:28:56.906Z,24.20
2018-03-06T11:29:56.905Z,23.00
2018-03-06T11:30:56.905Z,22.70
2018-03-06T11:31:56.905Z,22.70
2018-03-06T11:32:56.901Z,21.00
2018-03-06T11:33:56.902Z,23.60
2018-03-06T11:34:56.904Z,22.60
2018-03-06T11:35:56.904Z,24.80
2018-03-06T11:36:56.900Z,24.00
2018-03-06T11:37:56.906Z,22.60
2018-03-06T11:38:56.899Z,22.60
2018-03-06T11:39:56.899Z,23.80
2018-03-06T11:40:56.898Z,23.60
2018-03-06T11:41:56.899Z,22.10
2018-03-06T11:42:57.198Z,24.70
2018-03-06T11:43:56.899Z,22.90
2018-03-06T11:44:56.894Z,22.00
2018-03-06T11:45:56.894Z,22.30
2018-03-06T11:46:56.893Z,21.40
2018-03-06T11:47:56.896Z,25.40
2018-03-06T11:48:57.209Z,23.70
2018-03-06T11:49:56.896Z,22.50
2018-03-06T11:50:56.893Z,22.80
2018-03-06T11:51:56.896Z,24.10
2018-03-06T11:52:56.891Z,23.90
2018-03-06T11:53:56.894Z,23.50
2018-03-06T11:54:56.889Z,24.50
2018-03-06T11:55:56.902Z,23.00
2018-03-06T11:56:56.893Z,24.30
2018-03-06T11:57:56.912Z,23.10
2018-03-06T11:58:56.895Z,20.20
2018-03-06T11:59:56.892Z,22.40
2018-03-06T12:00:57.197Z,21.30
2018-03-06T12:01:56.925Z,22.10
2018-03-06T12:02:56.897Z,22.00
2018-03-06T12:03:56.920Z,21.40
2018-03-06T12:04:56.893Z,22.40
2018-03-06T12:05:56.892Z,23.90
2018-03-06T12:06:56.895Z,21.20
2018-03-06T12:07:56.895Z,21.60
2018-03-06T12:08:56.899Z,21.60
2018-03-06T12:09:56.897Z,21.30
2018-03-06T12:10:56.898Z,22.20
2018-03-06T12:11:56.909Z,22.40
2018-03-06T12:12:56.897Z,19.50
2018-03-06T12:13:56.945Z,22.70
2018-03-06T12:14:56.897Z,21.50
2018-03-06T12:15:56.897Z,22.20
2018-03-06T12:16:56.898Z,21.80
2018-03-06T12:17:56.899Z,19.80
2018-03-06T12:18:57.248Z,20.80
2018-03-06T12:19:56.903Z,20.50
2018-03-06T12:20:56.904Z,19.80
2018-03-06T12:21:56.905Z,20.40
2018-03-06T12:22:56.901Z,20.80
2018-03-06T12:23:56.904Z,22.20
2018-03-06T12:24:57.204Z,20.70
2018-03-06T12:25:56.906Z,20.50
2018-03-06T12:26:56.906Z,22.70
2018-03-06T12:27:56.906Z,21.30
2018-03-06T12:28:56.911Z,21.60
2018-03-06T12:29:56.907Z,20.80
2018-03-06T12:30:57.208Z,21.60
2018-03-06T12:31:56.907Z,21.70
2018-03-06T12:32:56.910Z,21.80
2018-03-06T12:33:56.910Z,22.30
2018-03-06T12:34:56.914Z,21.80
2018-03-06T12:35:56.914Z,22.50
2018-03-06T12:36:56.921Z,20.50
2018-03-06T12:37:56.918Z,22.30
2018-03-06T12:38:56.926Z,21.50
2018-03-06T12:39:56.924Z,22.50
2018-03-06T12:40:56.921Z,20.80
2018-03-06T12:41:56.926Z,22.50
2018-03-06T12:42:57.263Z,22.00
2018-03-06T12:43:56.921Z,22.10
2018-03-06T12:44:56.922Z,23.30
2018-03-06T12:45:56.928Z,20.90
2018-03-06T12:46:56.926Z,19.80
2018-03-06T12:47:56.929Z,20.90
2018-03-06T12:48:57.208Z,22.60
2018-03-06T12:49:56.947Z,25.30
2018-03-06T12:50:56.934Z,21.10
2018-03-06T12:51:56.933Z,22.00
2018-03-06T12:52:56.934Z,21.90
2018-03-06T12:53:56.944Z,22.50
2018-03-06T12:54:57.013Z,23.30
2018-03-06T12:55:56.950Z,23.10
2018-03-06T12:56:56.945Z,23.10
2018-03-06T12:57:56.950Z,24.30
2018-03-06T12:58:56.948Z,22.20
2018-03-06T12:59:56.949Z,22.90
2018-03-06T13:00:56.952Z,24.50
2018-03-06T13:01:56.956Z,22.90
2018-03-06T13:02:56.958Z,24.50
2018-03-06T13:03:56.961Z,22.70
2018-03-06T13:04:56.960Z,24.20
2018-03-06T13:05:56.962Z,23.20
2018-03-06T13:06:56.967Z,22.80
2018-03-06T13:07:56.971Z,24.00
2018-03-06T13:08:56.975Z,24.50
2018-03-06T13:09:56.979Z,23.60
2018-03-06T13:10:56.981Z,22.30
2018-03-06T13:11:56.984Z,24.20
2018-03-06T13:12:57.340Z,22.40
2018-03-06T13:13:56.995Z,22.60
2018-03-06T13:14:57.000Z,23.50
2018-03-06T13:15:56.999Z,24.30
2018-03-06T13:16:57.010Z,23.50
2018-03-06T13:17:57.008Z,25.20
2018-03-06T13:18:57.317Z,22.00
2018-03-06T13:19:57.021Z,22.30
2018-03-06T13:20:57.028Z,23.00
2018-03-06T13:21:57.029Z,21.20
2018-03-06T13:22:57.040Z,21.00
2018-03-06T13:23:57.037Z,21.50
2018-03-06T13:24:57.045Z,22.00
2018-03-06T13:25:57.046Z,22.10
2018-03-06T13:26:57.052Z,20.60
2018-03-06T13:27:57.058Z,20.80
2018-03-06T13:28:57.063Z,21.10
2018-03-06T13:29:57.068Z,20.10
2018-03-06T13:30:57.070Z,20.20
2018-03-06T13:31:57.074Z,22.50
2018-03-06T13:32:57.080Z,21.50
2018-03-06T13:33:57.087Z,21.80
2018-03-06T13:34:57.093Z,23.30
2018-03-06T13:35:57.091Z,20.60
2018-03-06T13:36:57.094Z,23.80
2018-03-06T13:37:57.105Z,21.00
2018-03-06T13:38:57.103Z,22.60
2018-03-06T13:39:57.110Z,23.10
2018-03-06T13:40:57.119Z,22.40
2018-03-06T13:41:57.418Z,22.20
2018-03-06T13:42:57.124Z,23.20
2018-03-06T13:43:57.132Z,22.60
2018-03-06T13:44:57.156Z,21.90
2018-03-06T13:45:57.136Z,21.00
2018-03-06T13:46:57.142Z,23.30
2018-03-06T13:47:57.147Z,22.80
2018-03-06T13:48:57.153Z,23.80
2018-03-06T13:49:57.156Z,22.30
2018-03-06T13:50:57.166Z,22.10
2018-03-06T13:51:57.164Z,22.90
2018-03-06T13:52:57.173Z,23.70
2018-03-06T13:53:57.178Z,22.60
2018-03-06T13:54:57.179Z,23.30
2018-03-06T13:55:57.184Z,22.00
2018-03-06T13:56:57.189Z,22.60
2018-03-06T13:57:57.198Z,21.60
2018-03-06T13:58:57.231Z,22.40
2018-03-06T13:59:57.206Z,21.40
2018-03-06T14:00:57.212Z,22.20
2018-03-06T14:01:57.218Z,21.90
2018-03-06T14:02:57.222Z,23.20
2018-03-06T14:03:57.229Z,21.40
2018-03-06T14:04:57.233Z,22.70
2018-03-06T14:05:57.243Z,20.80
2018-03-06T14:06:57.244Z,23.00
2018-03-06T14:07:57.247Z,22.20
2018-03-06T14:08:57.257Z,21.10
2018-03-06T14:09:57.261Z,21.30
2018-03-06T14:10:57.263Z,21.50
2018-03-06T14:11:57.571Z,22.40
2018-03-06T14:12:57.284Z,21.60
2018-03-06T14:13:57.282Z,20.70
2018-03-06T14:14:57.289Z,19.70
2018-03-06T14:15:57.293Z,21.00
2018-03-06T14:16:57.302Z,20.80
2018-03-06T14:17:57.303Z,22.30
2018-03-06T14:18:57.314Z,21.40
2018-03-06T14:19:57.315Z,21.40
2018-03-06T14:20:57.321Z,20.90
2018-03-06T14:21:57.327Z,21.30
2018-03-06T14:22:57.333Z,22.60
2018-03-06T14:23:57.336Z,22.10
2018-03-06T14:24:57.341Z,22.10
2018-03-06T14:25:57.350Z,20.00
2018-03-06T14:26:57.360Z,21.30
2018-03-06T14:27:57.363Z,21.00
2018-03-06T14:28:57.368Z,21.30
2018-03-06T14:29:57.927Z,20.60
2018-03-06T14:30:57.375Z,22.60
2018-03-06T14:31:57.380Z,21.00
2018-03-06T14:32:57.389Z,20.30
2018-03-06T14:33:57.396Z,22.40
2018-03-06T14:34:57.402Z,20.40
2018-03-06T14:35:57.708Z,20.70
2018-03-06T14:36:57.410Z,21.80
2018-03-06T14:37:57.414Z,20.00
2018-03-06T14:38:57.425Z,21.40
2018-03-06T14:39:57.427Z,21.80
2018-03-06T14:40:57.432Z,22.50
2018-03-06T14:41:57.442Z,21.70
2018-03-06T14:42:57.444Z,20.80
2018-03-06T14:43:57.446Z,23.30
2018-03-06T14:44:57.451Z,22.10
2018-03-06T14:45:57.461Z,20.90
2018-03-06T14:46:57.462Z,21.60
2018-03-06T14:47:57.468Z,23.40
2018-03-06T14:48:57.480Z,21.90
2018-03-06T14:49:57.479Z,21.80
2018-03-06T14:50:57.483Z,21.50
2018-03-06T14:51:57.490Z,23.20
2018-03-06T14:52:57.497Z,23.20
2018-03-06T14:53:57.804Z,21.80
2018-03-06T14:54:57.503Z,22.50
2018-03-06T14:55:57.506Z,20.80
2018-03-06T14:56:57.516Z,21.10
2018-03-06T14:57:57.515Z,21.60
2018-03-06T14:58:57.519Z,22.20
2018-03-06T14:59:57.826Z,21.80
2018-03-06T15:00:57.533Z,20.50
2018-03-06T15:01:57.536Z,21.30
2018-03-06T15:02:57.535Z,19.80
2018-03-06T15:03:57.539Z,21.80
2018-03-06T15:04:57.550Z,21.80
2018-03-06T15:05:57.648Z,21.80
2018-03-06T15:06:57.554Z,23.50
2018-03-06T15:07:57.590Z,23.80
2018-03-06T15:08:57.558Z,25.20
2018-03-06T15:09:57.560Z,22.90
2018-03-06T15:10:57.570Z,22.90
2018-03-06T15:11:57.597Z,21.70
2018-03-06T15:12:57.573Z,22.90
2018-03-06T15:13:57.577Z,21.30
2018-03-06T15:14:57.580Z,23.40
2018-03-06T15:15:57.580Z,22.10
2018-03-06T15:16:57.582Z,21.60
2018-03-06T15:17:57.632Z,22.80
2018-03-06T15:18:57.591Z,21.80
2018-03-06T15:19:57.593Z,22.70
2018-03-06T15:20:57.598Z,22.50
2018-03-06T15:21:57.599Z,23.10
2018-03-06T15:22:57.599Z,23.10
2018-03-06T15:23:58.054Z,24.30
2018-03-06T15:24:57.608Z,28.00
2018-03-06T15:25:57.607Z,23.20
2018-03-06T15:26:57.611Z,24.90
2018-03-06T15:27:57.607Z,22.60
2018-03-06T15:28:57.608Z,24.30
2018-03-06T15:29:57.912Z,24.80
2018-03-06T15:30:57.613Z,25.30
2018-03-06T15:31:57.616Z,23.60
2018-03-06T15:32:57.621Z,26.60
2018-03-06T15:33:57.621Z,25.10
2018-03-06T15:34:57.621Z,26.70
2018-03-06T15:35:57.924Z,24.60
2018-03-06T15:36:57.620Z,28.40
2018-03-06T15:37:57.623Z,26.70
2018-03-06T15:38:57.622Z,27.40
2018-03-06T15:39:57.624Z,25.90
2018-03-06T15:40:57.628Z,25.50
2018-03-06T15:41:57.628Z,28.50
2018-03-06T15:42:57.627Z,27.00
2018-03-06T15:43:57.630Z,28.70
2018-03-06T15:44:57.631Z,25.90
2018-03-06T15:45:57.631Z,25.50
2018-03-06T15:46:57.631Z,26.30
2018-03-06T15:47:57.637Z,27.30
2018-03-06T15:48:57.631Z,27.30
2018-03-06T15:49:57.632Z,27.30
2018-03-06T15:50:57.633Z,28.10
2018-03-06T15:51:57.638Z,27.20
2018-03-06T15:52:57.632Z,29.70
2018-03-06T15:53:57.635Z,27.10
2018-03-06T15:54:57.633Z,27.40
2018-03-06T15:55:57.637Z,25.10
2018-03-06T15:56:57.635Z,27.20
2018-03-06T15:57:57.635Z,29.40
2018-03-06T15:58:57.637Z,28.50
2018-03-06T15:59:57.635Z,27.60
2018-03-06T16:00:57.630Z,29.30
2018-03-06T16:01:57.632Z,29.40
2018-03-06T16:02:57.630Z,27.00
2018-03-06T16:03:57.633Z,29.90
2018-03-06T16:04:57.632Z,26.70
2018-03-06T16:05:57.632Z,28.00
2018-03-06T16:06:57.642Z,27.00
2018-03-06T16:07:57.629Z,27.50
2018-03-06T16:08:57.629Z,26.60
2018-03-06T16:09:57.628Z,28.70
2018-03-06T16:10:57.628Z,27.60
2018-03-06T16:11:57.632Z,29.40
2018-03-06T16:12:57.626Z,25.10
2018-03-06T16:13:57.630Z,27.00
2018-03-06T16:14:57.626Z,27.60
2018-03-06T16:15:57.627Z,27.00
2018-03-06T16:16:57.629Z,29.00
2018-03-06T16:17:57.729Z,27.80
2018-03-06T16:18:57.631Z,26.10
2018-03-06T16:19:57.627Z,28.30
2018-03-06T16:20:57.629Z,26.20
2018-03-06T16:21:57.627Z,29.00
2018-03-06T16:22:57.620Z,31.90
2018-03-06T16:23:57.925Z,26.20
2018-03-06T16:24:57.624Z,29.10
2018-03-06T16:25:57.622Z,27.80
2018-03-06T16:26:57.622Z,26.60
2018-03-06T16:27:57.631Z,26.90
2018-03-06T16:28:57.649Z,28.10
2018-03-06T16:29:57.918Z,26.90
2018-03-06T16:30:57.617Z,26.60
2018-03-06T16:31:57.620Z,27.90
2018-03-06T16:32:57.616Z,30.70
2018-03-06T16:33:57.619Z,26.20
2018-03-06T16:34:57.615Z,27.10
2018-03-06T16:35:58.718Z,26.70
2018-03-06T16:36:57.609Z,29.50
2018-03-06T16:37:57.613Z,27.80
2018-03-06T16:38:57.613Z,29.20
2018-03-06T16:39:57.609Z,28.60
2018-03-06T16:40:57.608Z,28.10
2018-03-06T16:41:57.608Z,29.10
2018-03-06T16:42:57.608Z,26.20
2018-03-06T16:43:57.606Z,29.50
2018-03-06T16:44:57.605Z,30.70
2018-03-06T16:45:57.603Z,29.10
2018-03-06T16:46:57.602Z,26.90
2018-03-06T16:47:57.600Z,27.20
2018-03-06T16:48:57.599Z,29.60
2018-03-06T16:49:57.597Z,28.60
2018-03-06T16:50:57.601Z,29.80
2018-03-06T16:51:57.596Z,28.00
2018-03-06T16:52:57.596Z,28.60
2018-03-06T16:53:57.597Z,29.90
2018-03-06T16:54:57.596Z,29.20
2018-03-06T16:55:57.624Z,28.20
2018-03-06T16:56:57.595Z,28.10
2018-03-06T16:57:57.588Z,26.50
2018-03-06T16:58:57.586Z,27.10
2018-03-06T16:59:57.834Z,28.80
2018-03-06T17:00:57.584Z,28.90
2018-03-06T17:01:57.588Z,27.60
2018-03-06T17:02:57.584Z,26.80
2018-03-06T17:03:57.581Z,28.10
2018-03-06T17:04:57.579Z,28.70
2018-03-06T17:05:57.580Z,27.20
2018-03-06T17:06:57.576Z,32.10
2018-03-06T17:07:57.579Z,27.60
2018-03-06T17:08:57.576Z,29.00
2018-03-06T17:09:57.577Z,29.20
2018-03-06T17:10:57.567Z,31.50
2018-03-06T17:11:57.569Z,30.90
2018-03-06T17:12:57.568Z,30.30
2018-03-06T17:13:57.568Z,32.30
2018-03-06T17:14:57.568Z,30.50
2018-03-06T17:15:57.564Z,30.40
2018-03-06T17:16:57.561Z,30.30
2018-03-06T17:17:57.562Z,30.80
2018-03-06T17:18:57.558Z,29.60
2018-03-06T17:19:57.560Z,30.70
2018-03-06T17:20:57.553Z,30.60
2018-03-06T17:21:57.557Z,28.80
2018-03-06T17:22:57.549Z,31.80
2018-03-06T17:23:57.548Z,30.50
2018-03-06T17:24:57.550Z,31.40
2018-03-06T17:25:57.546Z,29.20
2018-03-06T17:26:57.544Z,30.50
2018-03-06T17:27:57.539Z,28.10
2018-03-06T17:28:57.551Z,31.40
2018-03-06T17:29:57.536Z,28.80
2018-03-06T17:30:57.533Z,30.10
2018-03-06T17:31:57.534Z,28.40
2018-03-06T17:32:57.533Z,26.40
2018-03-06T17:33:57.531Z,28.80
2018-03-06T17:34:57.527Z,30.20
2018-03-06T17:35:57.525Z,29.60
2018-03-06T17:36:57.530Z,30.80
2018-03-06T17:37:57.520Z,31.70
2018-03-06T18:25:31.973Z,35.70
2018-03-06T18:26:31.969Z,36.00
2018-03-06T18:27:31.960Z,35.50
2018-03-06T18:28:31.959Z,35.10
2018-03-06T18:29:31.959Z,35.70
2018-03-06T18:30:31.957Z,33.30
2018-03-06T18:31:31.950Z,33.80
2018-03-06T18:32:31.949Z,35.10
2018-03-06T18:33:31.948Z,33.20
2018-03-06T18:34:31.939Z,33.80
2018-03-06T18:35:31.942Z,33.00
2018-03-06T18:36:31.939Z,32.70
2018-03-06T18:37:31.961Z,35.60
2018-03-06T18:38:31.929Z,32.00
2018-03-06T18:39:31.926Z,30.50
2018-03-06T18:40:31.923Z,28.00
2018-03-06T18:41:31.920Z,28.40
2018-03-06T18:42:31.918Z,27.20
2018-03-06T18:43:31.912Z,25.80
2018-03-06T18:44:31.908Z,26.90
2018-03-06T18:45:31.907Z,24.80
2018-03-06T18:46:31.905Z,24.70
2018-03-06T18:47:31.898Z,25.00
2018-03-06T18:48:31.900Z,26.50
2018-03-06T18:49:31.893Z,25.40
2018-03-06T18:50:31.891Z,24.40
2018-03-06T18:51:31.886Z,25.40
2018-03-06T18:52:31.882Z,25.00
2018-03-06T18:53:31.884Z,26.90
2018-03-06T18:54:31.877Z,26.30
2018-03-06T18:55:31.876Z,25.10
2018-03-06T18:56:31.867Z,26.50
2018-03-06T18:57:31.863Z,25.50
2018-03-06T18:58:31.866Z,25.60
2018-03-06T18:59:31.860Z,27.60
2018-03-06T19:00:31.856Z,24.90
2018-03-06T19:01:31.852Z,25.70
2018-03-06T19:02:31.847Z,25.20
2018-03-06T19:03:31.844Z,25.10
2018-03-06T19:04:31.845Z,25.40
2018-03-06T19:05:31.839Z,26.20
2018-03-06T19:06:31.832Z,26.10
2018-03-06T19:07:31.827Z,25.30
2018-03-06T19:08:31.827Z,25.10
2018-03-06T19:09:31.829Z,25.60
2018-03-06T19:10:31.821Z,25.00
2018-03-06T19:11:31.815Z,24.90
2018-03-06T19:12:31.812Z,24.80
2018-03-06T19:13:31.808Z,25.10
2018-03-06T19:14:31.808Z,27.80
2018-03-06T19:15:31.800Z,24.70
2018-03-06T19:16:31.801Z,25.00
2018-03-06T19:17:31.792Z,25.40
2018-03-06T19:18:31.794Z,25.10
2018-03-06T19:19:31.787Z,25.20
2018-03-06T19:20:31.784Z,25.60
2018-03-06T19:21:31.780Z,24.90
2018-03-06T19:22:31.785Z,25.10
2018-03-06T19:23:31.771Z,25.40
2018-03-06T19:24:31.765Z,25.50
2018-03-06T19:25:31.762Z,25.90
2018-03-06T19:26:31.764Z,24.20
2018-03-06T19:27:31.753Z,25.10
2018-03-06T19:28:31.754Z,25.40
2018-03-06T19:29:31.748Z,25.40
2018-03-06T19:30:31.749Z,26.00
2018-03-06T19:31:31.747Z,25.80
2018-03-06T19:32:31.735Z,25.50
2018-03-06T19:33:31.730Z,25.00
2018-03-06T19:34:31.726Z,26.90
2018-03-06T19:35:31.723Z,24.50
2018-03-06T19:36:31.720Z,25.50
2018-03-06T19:37:31.817Z,25.70
2018-03-06T19:38:31.715Z,29.70
2018-03-06T19:39:31.713Z,25.60
2018-03-06T19:40:31.703Z,26.30
2018-03-06T19:41:31.703Z,25.00
2018-03-06T19:42:31.703Z,26.40
2018-03-06T19:43:31.693Z,25.20
2018-03-06T19:44:31.694Z,26.60
2018-03-06T19:45:31.688Z,26.60
2018-03-06T19:46:31.705Z,26.10
2018-03-06T19:47:31.676Z,25.80
2018-03-06T19:48:31.674Z,27.00
2018-03-06T19:49:31.673Z,27.80
2018-03-06T19:50:31.668Z,27.10
2018-03-06T19:51:31.668Z,27.20
2018-03-06T19:52:31.663Z,27.00
2018-03-06T19:53:31.657Z,27.20
2018-03-06T19:54:31.655Z,27.30
2018-03-06T19:55:31.649Z,27.50
2018-03-06T19:56:31.643Z,27.70
2018-03-06T19:57:31.645Z,27.90
2018-03-06T19:58:31.638Z,26.70
2018-03-06T19:59:31.636Z,27.40
2018-03-06T20:00:31.628Z,27.50
2018-03-06T20:01:31.628Z,27.10
2018-03-06T20:02:31.631Z,28.10
2018-03-06T20:03:31.616Z,28.20
2018-03-06T20:04:31.620Z,27.60
2018-03-06T20:05:31.608Z,28.40
2018-03-06T20:06:31.607Z,27.80
2018-03-06T20:07:31.600Z,28.40
2018-03-06T20:08:31.598Z,28.20
2018-03-06T20:09:31.593Z,27.00
2018-03-06T20:10:31.591Z,28.30
2018-03-06T20:11:31.589Z,29.00
2018-03-06T20:12:31.580Z,27.50
2018-03-06T20:13:31.582Z,27.60
2018-03-06T20:14:31.572Z,27.80
2018-03-06T20:15:31.569Z,26.70
2018-03-06T20:16:31.567Z,27.50
2018-03-06T20:17:31.561Z,27.30
2018-03-06T20:18:31.563Z,28.40
2018-03-06T20:19:31.554Z,27.50
2018-03-06T20:20:31.552Z,27.90
2018-03-06T20:21:31.550Z,28.40
2018-03-06T20:22:31.544Z,28.60
2018-03-06T20:23:31.541Z,28.20
2018-03-06T20:24:31.537Z,27.90
2018-03-06T20:25:31.530Z,28.40
2018-03-06T20:26:31.530Z,27.90
2018-03-06T20:27:31.530Z,28.60
2018-03-06T20:28:31.522Z,28.00
2018-03-06T20:29:31.517Z,27.90
2018-03-06T20:30:31.514Z,28.00
2018-03-06T20:31:31.511Z,27.70
2018-03-06T20:32:31.506Z,27.80
2018-03-06T20:33:31.502Z,27.70
2018-03-06T20:34:31.498Z,28.30
2018-03-06T20:35:31.498Z,27.20
2018-03-06T20:36:31.489Z,27.90
2018-03-06T20:37:31.484Z,28.00
2018-03-06T20:38:31.480Z,28.50
2018-03-06T20:39:31.478Z,28.90
2018-03-06T20:40:31.475Z,28.40
2018-03-06T20:41:31.474Z,29.10
2018-03-06T20:42:31.467Z,28.70
2018-03-06T20:43:31.465Z,28.10
2018-03-06T20:44:31.458Z,28.90
2018-03-06T20:45:31.461Z,29.00
2018-03-06T20:46:31.454Z,29.90
2018-03-06T20:47:31.447Z,29.20
2018-03-06T20:48:31.446Z,28.40
2018-03-06T20:49:31.446Z,28.40
2018-03-06T20:50:31.433Z,29.00
2018-03-06T20:51:31.479Z,28.80
2018-03-06T20:52:31.430Z,29.60
2018-03-06T20:53:31.431Z,28.30
2018-03-06T20:54:31.422Z,29.60
2018-03-06T20:55:31.417Z,29.40
2018-03-06T20:56:31.414Z,30.90
2018-03-06T20:57:31.412Z,30.40
2018-03-06T20:58:31.413Z,29.80
2018-03-06T20:59:31.421Z,31.10
2018-03-06T21:00:31.402Z,31.20
2018-03-06T21:01:31.391Z,30.50
2018-03-06T21:02:31.387Z,31.50
2018-03-06T21:03:31.385Z,32.80
2018-03-06T21:04:31.381Z,30.60
2018-03-06T21:05:31.376Z,30.70
2018-03-06T21:06:31.371Z,31.20
2018-03-06T21:07:31.517Z,32.00
2018-03-06T21:08:31.425Z,32.00
2018-03-06T21:09:31.363Z,31.10
2018-03-06T21:10:31.362Z,32.10
2018-03-06T21:11:31.367Z,31.60
2018-03-06T21:12:31.347Z,30.80
2018-03-06T21:13:31.342Z,31.30
2018-03-06T21:14:31.340Z,31.50
2018-03-06T21:15:31.333Z,32.90
2018-03-06T21:16:31.331Z,33.10
2018-03-06T21:17:31.323Z,33.10
2018-03-06T21:18:31.317Z,33.40
2018-03-06T21:19:31.313Z,32.90
2018-03-06T21:20:31.315Z,32.60
2018-03-06T21:21:31.310Z,33.00
2018-03-06T21:22:31.306Z,33.50
2018-03-06T21:23:31.296Z,33.20
2018-03-06T21:24:31.294Z,33.20
2018-03-06T21:25:31.297Z,33.20
2018-03-06T21:26:31.291Z,32.80
2018-03-06T21:27:31.280Z,34.00
2018-03-06T21:28:31.326Z,32.60
2018-03-06T21:29:31.272Z,34.50
2018-03-06T21:30:31.264Z,33.70
2018-03-06T21:31:31.264Z,33.50
2018-03-06T21:32:31.259Z,34.60
2018-03-06T21:33:31.255Z,33.10
2018-03-06T21:34:31.263Z,34.30
2018-03-06T21:35:31.248Z,33.90
2018-03-06T21:36:31.243Z,33.50
2018-03-06T21:37:31.233Z,33.20
2018-03-06T21:38:31.234Z,33.20
2018-03-06T21:39:31.229Z,34.70
2018-03-06T21:40:31.223Z,34.30
2018-03-06T21:41:31.217Z,34.90
2018-03-06T21:42:31.213Z,35.40
2018-03-06T21:43:31.208Z,34.90
2018-03-06T21:44:31.209Z,34.50
2018-03-06T21:45:31.200Z,34.90
2018-03-06T21:46:31.201Z,35.20
2018-03-06T21:47:31.197Z,33.40
2018-03-06T21:48:31.186Z,34.90
2018-03-06T21:49:31.182Z,35.30
2018-03-06T21:50:31.178Z,35.60
2018-03-06T21:51:31.171Z,35.90
2018-03-06T21:52:31.168Z,36.30
2018-03-06T21:53:31.162Z,36.50
2018-03-06T21:54:31.156Z,37.50
2018-03-06T21:55:31.153Z,36.30
2018-03-06T21:56:31.152Z,36.40
2018-03-06T21:57:31.143Z,37.00
2018-03-06T21:58:31.136Z,36.60
2018-03-06T21:59:31.146Z,37.20
2018-03-06T22:00:31.128Z,37.30
2018-03-06T22:01:31.126Z,37.60
2018-03-06T22:02:31.119Z,37.40
2018-03-06T22:03:31.118Z,37.90
2018-03-06T22:04:31.135Z,37.60
2018-03-06T22:05:31.101Z,38.40
2018-03-06T22:06:31.102Z,37.00
2018-03-06T22:07:31.091Z,36.90
2018-03-06T22:08:31.087Z,38.20
2018-03-06T22:09:31.081Z,37.40
2018-03-06T22:10:31.081Z,38.40
2018-03-06T22:11:31.072Z,38.30
2018-03-06T22:12:31.069Z,37.60
2018-03-06T22:13:31.066Z,38.90
2018-03-06T22:14:31.059Z,38.50
2018-03-06T22:15:31.055Z,38.90
2018-03-06T22:16:31.046Z,40.10
2018-03-06T22:17:31.048Z,40.00
2018-03-06T22:18:31.065Z,39.60
2018-03-06T22:19:31.035Z,39.50
2018-03-06T22:20:31.029Z,40.90
2018-03-06T22:21:31.027Z,40.80
2018-03-06T22:22:31.023Z,39.90